Time;durP1;ratioP1;P1;durP2;ratioP2;P2;SDS_P1;SDS_P2;PMS_P1;PMS_P2;Temp;Humidity;BMP_temperature;BMP_pressure;BME280_temperature;BME280_humidity;BME280_pressure;Samples;Min_cycle;Max_cycle;Signal;HPM_P1;HPM_P2
2022/07/22 00:02:25;;;;;;;4.65;4.20;;;;;;;19.58;79.69;96918.97;5056439;28;20207;-61
2022/07/22 00:04:51;;;;;;;5.78;4.13;;;;;;;19.45;81.48;96914.31;5055816;28;20226;-60
2022/07/22 00:07:19;;;;;;;4.80;4.25;;;;;;;19.52;80.51;96920.56;5055492;28;20203;-61
2022/07/22 00:09:46;;;;;;;4.30;3.97;;;;;;;19.49;80.64;96915.59;5055564;28;20231;-61
2022/07/22 00:12:13;;;;;;;4.53;4.13;;;;;;;19.50;80.63;96919.09;5056060;28;20230;-60
2022/07/22 00:14:39;;;;;;;4.75;4.35;;;;;;;19.43;82.33;96911.00;5055520;28;20525;-60
2022/07/22 00:17:06;;;;;;;4.97;4.28;;;;;;;19.49;81.18;96909.38;5055038;28;20245;-59
2022/07/22 00:19:33;;;;;;;4.20;3.90;;;;;;;19.46;81.79;96905.25;5055421;28;20253;-62
2022/07/22 00:21:59;;;;;;;5.78;4.20;;;;;;;19.45;82.26;96908.13;5055221;28;20623;-61
2022/07/22 00:24:28;;;;;;;5.30;4.28;;;;;;;19.41;81.73;96899.66;5055177;28;20203;-60
2022/07/22 00:26:55;;;;;;;6.50;4.18;;;;;;;19.38;82.47;96910.69;5055482;28;20246;-63
2022/07/22 00:29:22;;;;;;;4.50;4.10;;;;;;;19.32;82.44;96904.25;5055111;28;20211;-58
2022/07/22 00:31:49;;;;;;;3.95;3.75;;;;;;;19.34;82.65;96904.88;5055425;28;20227;-59
2022/07/22 00:34:15;;;;;;;4.45;4.05;;;;;;;19.37;81.96;96906.38;5055668;28;20241;-60
2022/07/22 00:36:42;;;;;;;5.68;4.50;;;;;;;19.35;83.24;96903.03;5055243;28;20207;-60
2022/07/22 00:39:08;;;;;;;5.45;4.35;;;;;;;19.32;83.01;96892.69;5055372;28;20674;-58
2022/07/22 00:41:37;;;;;;;4.97;4.47;;;;;;;19.28;83.00;96886.88;5055312;28;20206;-58
2022/07/22 00:44:05;;;;;;;4.40;4.00;;;;;;;19.35;81.11;96893.16;5055810;28;20211;-58
2022/07/22 00:46:33;;;;;;;4.80;4.47;;;;;;;19.34;82.14;96882.63;5055378;28;20211;-57
2022/07/22 00:49:00;;;;;;;6.10;4.60;;;;;;;19.32;82.03;96887.34;5055627;28;20243;-57
2022/07/22 00:51:28;;;;;;;4.97;4.28;;;;;;;19.30;82.35;96878.66;5056271;28;20591;-57
2022/07/22 00:53:56;;;;;;;4.80;4.35;;;;;;;19.29;82.76;96882.34;5055740;28;20289;-57
2022/07/22 00:56:25;;;;;;;4.47;4.18;;;;;;;19.18;84.66;96870.28;5047919;28;20203;-58
2022/07/22 00:58:56;;;;;;;5.30;4.47;;;;;;;19.12;84.30;96873.75;5055807;28;20586;-59
2022/07/22 01:01:23;;;;;;;4.78;4.38;;;;;;;19.26;82.29;96872.84;5055181;28;20265;-57
2022/07/22 01:03:49;;;;;;;4.80;4.40;;;;;;;19.20;82.70;96870.91;5055583;28;20242;-59
2022/07/22 01:06:16;;;;;;;4.85;4.45;;;;;;;19.10;85.27;96869.56;5055358;28;20540;-56
2022/07/22 01:08:43;;;;;;;4.82;4.43;;;;;;;19.09;84.06;96867.94;5054632;28;20203;-60
2022/07/22 01:11:11;;;;;;;4.85;4.40;;;;;;;19.07;85.06;96859.22;5055401;28;20289;-58
2022/07/22 01:13:39;;;;;;;4.78;4.38;;;;;;;19.03;86.11;96866.00;5055125;28;20203;-57
2022/07/22 01:16:09;;;;;;;4.80;4.40;;;;;;;18.98;86.02;96863.91;5055223;28;20553;-57
2022/07/22 01:18:36;;;;;;;5.20;4.75;;;;;;;18.97;86.94;96864.91;5054745;28;20265;-58
2022/07/22 01:21:04;;;;;;;6.22;4.55;;;;;;;18.95;86.93;96868.81;5055033;28;20203;-57
2022/07/22 01:23:31;;;;;;;6.88;5.05;;;;;;;18.94;86.66;96857.25;5055406;28;20207;-59
2022/07/22 01:25:58;;;;;;;5.43;4.78;;;;;;;19.03;83.98;96861.47;5055114;28;20199;-58
2022/07/22 01:28:25;;;;;;;5.45;4.93;;;;;;;19.00;85.13;96861.00;5054720;28;20203;-58
2022/07/22 01:30:52;;;;;;;5.15;4.75;;;;;;;18.95;86.21;96858.94;5054808;28;20273;-58
2022/07/22 01:33:19;;;;;;;5.88;4.47;;;;;;;18.88;87.23;96858.81;5055131;28;20269;-58
2022/07/22 01:35:46;;;;;;;5.30;4.90;;;;;;;18.93;86.32;96857.44;5055022;28;20303;-57
2022/07/22 01:38:15;;;;;;;5.53;5.07;;;;;;;18.91;86.73;96852.28;5054970;28;20217;-57
2022/07/22 01:40:42;;;;;;;4.90;4.47;;;;;;;18.95;86.05;96855.41;5055556;28;20213;-58
2022/07/22 01:43:09;;;;;;;5.00;4.60;;;;;;;18.95;84.91;96866.13;5054681;28;20207;-56
2022/07/22 01:45:36;;;;;;;5.50;4.88;;;;;;;18.87;86.45;96859.88;5054017;28;20303;-58
2022/07/22 01:48:03;;;;;;;5.65;4.43;;;;;;;18.83;86.64;96861.25;5054939;28;20698;-56
2022/07/22 01:50:31;;;;;;;5.00;4.60;;;;;;;18.81;87.52;96860.59;5054952;28;20618;-56
2022/07/22 01:52:57;;;;;;;5.20;4.70;;;;;;;18.75;87.41;96869.41;5054609;28;20627;-58
2022/07/22 01:55:26;;;;;;;5.30;4.70;;;;;;;18.83;86.22;96855.91;5054384;28;20221;-57
2022/07/22 01:57:53;;;;;;;4.85;4.45;;;;;;;18.89;84.02;96863.19;5054613;28;20202;-56
2022/07/22 02:00:20;;;;;;;5.78;4.72;;;;;;;18.77;86.63;96867.38;5054622;28;20253;-56
2022/07/22 02:02:46;;;;;;;5.10;4.70;;;;;;;18.75;87.49;96869.41;5054218;28;20651;-56
2022/07/22 02:05:13;;;;;;;7.28;4.75;;;;;;;18.67;88.40;96874.88;5054446;28;20211;-57
2022/07/22 02:07:40;;;;;;;5.63;4.25;;;;;;;18.63;88.55;96865.56;5054989;28;20211;-57
2022/07/22 02:10:07;;;;;;;5.22;4.72;;;;;;;18.64;89.05;96864.53;5057659;28;20289;-62
2022/07/22 02:12:35;;;;;;;4.82;4.50;;;;;;;18.70;87.81;96861.13;5058598;28;20222;-62
2022/07/22 02:15:02;;;;;;;5.18;4.22;;;;;;;18.66;87.82;96859.81;5058904;28;20612;-62
2022/07/22 02:17:29;;;;;;;5.22;4.80;;;;;;;18.69;85.97;96851.41;5058229;28;20202;-60
2022/07/22 02:19:56;;;;;;;5.07;4.60;;;;;;;18.66;84.87;96856.31;5058511;28;20199;-61
2022/07/22 02:22:22;;;;;;;4.93;4.50;;;;;;;18.55;88.74;96857.63;5045112;28;20211;-61
2022/07/22 02:24:49;;;;;;;5.22;4.82;;;;;;;18.49;88.80;96853.00;5058051;28;20555;-61
2022/07/22 02:27:16;;;;;;;5.30;4.80;;;;;;;18.54;88.00;96850.59;5058424;28;20639;-59
2022/07/22 02:29:46;;;;;;;7.15;4.47;;;;;;;18.48;89.17;96855.84;5044623;28;20219;-59
2022/07/22 02:32:13;;;;;;;4.90;4.50;;;;;;;18.40;89.87;96860.28;5057921;28;20555;-58
2022/07/22 02:34:39;;;;;;;4.97;4.57;;;;;;;18.39;89.77;96855.94;5058340;28;20531;-58
2022/07/22 02:37:06;;;;;;;5.20;4.70;;;;;;;18.39;88.83;96857.78;5058284;28;20207;-58
2022/07/22 02:39:33;;;;;;;5.43;4.93;;;;;;;18.35;89.51;96853.84;5058429;28;20561;-59
2022/07/22 02:42:00;;;;;;;4.97;4.57;;;;;;;18.35;89.59;96862.69;5059078;28;20287;-59
2022/07/22 02:44:26;;;;;;;5.47;4.97;;;;;;;18.42;88.03;96858.25;5059046;28;20204;-58
2022/07/22 02:46:55;;;;;;;5.65;5.10;;;;;;;18.39;88.48;96863.13;5057696;28;20290;-60
2022/07/22 02:49:21;;;;;;;5.43;5.00;;;;;;;18.32;89.59;96856.88;5058605;28;20700;-59
2022/07/22 02:51:48;;;;;;;6.68;4.90;;;;;;;18.30;89.82;96853.56;5058074;28;20256;-59
2022/07/22 02:54:15;;;;;;;5.07;4.78;;;;;;;18.25;89.04;96858.63;5058060;28;20290;-58
2022/07/22 02:56:42;;;;;;;5.30;4.68;;;;;;;18.27;90.22;96867.31;5058091;28;20272;-58
2022/07/22 02:59:08;;;;;;;6.00;5.45;;;;;;;18.19;90.45;96865.56;5058722;28;20211;-59
2022/07/22 03:01:35;;;;;;;5.90;5.40;;;;;;;18.25;90.30;96861.31;5056701;28;20199;-60
2022/07/22 03:04:03;;;;;;;5.72;5.10;;;;;;;18.32;87.81;96865.72;5054296;28;20237;-59
2022/07/22 03:06:30;;;;;;;5.65;5.25;;;;;;;18.30;87.99;96858.91;5076226;28;20234;-59
2022/07/22 03:08:57;;;;;;;5.40;5.00;;;;;;;18.24;89.84;96857.00;5076108;28;20187;-60
2022/07/22 03:11:24;;;;;;;5.53;5.05;;;;;;;18.25;89.37;96858.63;5076707;28;20221;-60
2022/07/22 03:13:52;;;;;;;12.45;11.00;;;;;;;18.21;90.93;96857.38;5074237;28;20210;-61
2022/07/22 03:16:18;;;;;;;6.28;5.78;;;;;;;18.27;90.41;96848.59;5071174;28;20200;-59
2022/07/22 03:18:45;;;;;;;5.45;4.95;;;;;;;18.30;88.77;96856.25;5062407;28;20234;-60
2022/07/22 03:21:13;;;;;;;5.90;5.43;;;;;;;18.24;89.57;96857.00;5052106;28;20276;-59
2022/07/22 03:23:40;;;;;;;5.93;5.32;;;;;;;18.22;90.07;96850.97;5057375;28;20290;-60
2022/07/22 03:26:06;;;;;;;6.38;5.75;;;;;;;18.18;90.70;96849.69;5057696;28;20606;-61
2022/07/22 03:28:33;;;;;;;6.80;5.97;;;;;;;18.17;91.56;96854.22;5058150;28;20211;-60
2022/07/22 03:31:00;;;;;;;6.20;5.72;;;;;;;18.20;90.21;96858.38;5057237;28;20222;-61
2022/07/22 03:33:26;;;;;;;6.30;5.70;;;;;;;18.16;89.70;96857.06;5057297;28;20773;-60
2022/07/22 03:35:53;;;;;;;6.60;5.93;;;;;;;18.07;93.14;96853.66;5058764;28;20295;-59
2022/07/22 03:38:21;;;;;;;5.95;5.38;;;;;;;18.13;90.84;96847.56;5058842;28;20211;-60
2022/07/22 03:40:48;;;;;;;6.47;5.28;;;;;;;18.05;93.56;96860.22;5058061;28;20214;-57
2022/07/22 03:43:14;;;;;;;6.75;5.72;;;;;;;17.97;93.37;96846.91;5057752;28;20352;-58
2022/07/22 03:45:41;;;;;;;7.00;6.30;;;;;;;17.96;93.54;96846.06;5057242;28;20544;-60
2022/07/22 03:48:08;;;;;;;6.50;5.90;;;;;;;17.94;94.93;96849.97;5058915;28;20239;-60
2022/07/22 03:50:35;;;;;;;6.18;5.55;;;;;;;17.99;94.49;96856.44;5058641;28;20318;-60
2022/07/22 03:53:01;;;;;;;6.15;5.65;;;;;;;17.97;93.71;96842.38;5058548;28;20230;-59
2022/07/22 03:55:29;;;;;;;6.47;5.63;;;;;;;18.02;93.57;96849.88;5057983;28;20260;-59
2022/07/22 03:57:56;;;;;;;6.50;5.90;;;;;;;18.06;93.11;96845.81;5056259;28;20635;-59
2022/07/22 04:00:23;;;;;;;8.80;5.97;;;;;;;18.09;90.91;96840.09;5056765;28;20211;-59
2022/07/22 04:02:50;;;;;;;7.30;5.97;;;;;;;18.12;89.68;96845.06;5055978;28;20575;-58
2022/07/22 04:05:16;;;;;;;5.78;5.40;;;;;;;18.13;90.09;96841.38;5056616;28;20211;-58
2022/07/22 04:07:43;;;;;;;6.22;5.63;;;;;;;18.04;92.20;96840.63;5044528;28;20215;-58
2022/07/22 04:10:10;;;;;;;5.90;5.50;;;;;;;18.08;91.35;96843.78;5054918;28;20570;-58
2022/07/22 04:12:39;;;;;;;6.05;5.55;;;;;;;18.00;92.92;96843.84;5055777;28;20255;-59
2022/07/22 04:15:09;;;;;;;6.70;6.00;;;;;;;17.97;94.26;96849.59;5055627;28;20731;-59
2022/07/22 04:17:35;;;;;;;6.20;5.65;;;;;;;17.96;94.93;96845.28;5055972;28;20237;-59
2022/07/22 04:20:03;;;;;;;6.53;5.95;;;;;;;18.08;93.02;96846.44;5055810;28;20234;-59
2022/07/22 04:22:29;;;;;;;6.30;5.80;;;;;;;18.08;94.25;96841.94;5056256;28;20215;-58
2022/07/22 04:24:56;;;;;;;6.32;5.63;;;;;;;18.20;91.56;96840.47;5054992;28;20680;-59
2022/07/22 04:27:23;;;;;;;6.50;5.93;;;;;;;18.26;93.48;96841.56;5055785;28;20214;-58
2022/07/22 04:29:51;;;;;;;6.40;5.80;;;;;;;18.36;91.14;96836.75;5055487;28;20211;-58
2022/07/22 04:32:18;;;;;;;7.55;5.63;;;;;;;18.41;92.18;96842.38;5054526;28;20219;-57
2022/07/22 04:34:44;;;;;;;7.47;6.50;;;;;;;18.46;93.28;96837.28;5055695;28;20218;-53
2022/07/22 04:37:11;;;;;;;6.40;5.90;;;;;;;18.48;93.63;96843.28;5055732;28;20556;-53
2022/07/22 04:39:38;;;;;;;6.57;5.80;;;;;;;18.59;92.89;96842.84;5055290;28;20202;-53
2022/07/22 04:42:04;;;;;;;6.38;5.70;;;;;;;19.08;90.60;96834.09;5055273;28;20628;-53
2022/07/22 04:44:31;;;;;;;6.55;5.95;;;;;;;19.66;86.92;96838.38;5055348;28;20207;-52
2022/07/22 04:46:59;;;;;;;6.45;5.85;;;;;;;20.18;83.46;96840.56;5055059;28;20639;-52
2022/07/22 04:49:26;;;;;;;6.38;5.80;;;;;;;20.54;82.61;96843.06;5055441;28;20195;-53
2022/07/22 04:51:53;;;;;;;7.10;5.25;;;;;;;20.54;83.20;96835.81;5055293;28;20235;-53
2022/07/22 04:54:20;;;;;;;5.38;5.00;;;;;;;20.35;84.69;96832.00;5055396;28;20235;-52
2022/07/22 04:56:47;;;;;;;6.13;5.55;;;;;;;20.27;85.38;96828.63;5055074;28;20237;-53
2022/07/22 04:59:13;;;;;;;6.47;5.88;;;;;;;20.16;87.44;96838.06;5055792;28;20221;-53
2022/07/22 05:01:40;;;;;;;7.95;5.93;;;;;;;20.53;84.15;96836.84;5056168;28;20203;-52
2022/07/22 05:04:08;;;;;;;6.40;5.90;;;;;;;20.67;84.03;96835.88;5055735;28;20233;-53
2022/07/22 05:06:35;;;;;;;6.30;5.70;;;;;;;20.51;85.29;96836.19;5054807;28;20693;-53
2022/07/22 05:09:01;;;;;;;7.05;6.35;;;;;;;20.48;85.57;96833.91;5055238;28;20211;-52
2022/07/22 05:11:28;;;;;;;6.32;5.72;;;;;;;20.54;84.87;96837.69;5054175;28;20242;-53
2022/07/22 05:13:55;;;;;;;6.85;6.35;;;;;;;20.70;83.75;96840.84;5055172;28;20217;-52
2022/07/22 05:16:21;;;;;;;6.30;5.78;;;;;;;20.69;85.34;96843.75;5055139;28;20206;-52
2022/07/22 05:18:48;;;;;;;7.47;6.78;;;;;;;20.80;84.54;96840.44;5055018;28;20241;-52
2022/07/22 05:21:16;;;;;;;7.80;6.97;;;;;;;21.02;83.82;96838.44;5054481;28;20260;-53
2022/07/22 05:23:43;;;;;;;7.68;6.88;;;;;;;21.25;81.56;96838.94;5054791;28;20654;-53
2022/07/22 05:26:10;;;;;;;8.95;8.05;;;;;;;21.43;80.70;96849.94;5054573;28;20203;-54
2022/07/22 05:28:37;;;;;;;7.65;7.00;;;;;;;21.63;79.80;96837.31;5054661;28;20203;-51
2022/07/22 05:31:03;;;;;;;8.43;7.63;;;;;;;21.74;76.63;96834.00;5054521;28;20209;-53
2022/07/22 05:33:30;;;;;;;8.35;7.63;;;;;;;21.86;76.97;96834.16;5055098;28;20203;-54
2022/07/22 05:35:57;;;;;;;8.77;7.80;;;;;;;21.97;78.04;96838.97;5054544;28;20210;-53
2022/07/22 05:38:25;;;;;;;8.25;7.55;;;;;;;22.10;74.78;96830.03;5054695;28;20207;-53
2022/07/22 05:40:51;;;;;;;8.63;7.75;;;;;;;22.20;75.93;96836.66;5054368;28;20242;-54
2022/07/22 05:43:18;;;;;;;7.28;6.68;;;;;;;22.38;76.17;96835.16;5054203;28;20210;-54
2022/07/22 05:45:45;;;;;;;8.45;7.68;;;;;;;22.58;74.96;96827.81;5054173;28;20227;-52
2022/07/22 05:48:12;;;;;;;8.48;7.57;;;;;;;22.59;73.04;96838.41;5054313;28;20239;-53
2022/07/22 05:50:38;;;;;;;8.27;7.57;;;;;;;22.68;72.31;96831.75;5054396;28;20215;-52
2022/07/22 05:53:05;;;;;;;8.85;7.88;;;;;;;22.86;72.65;96835.59;5054303;28;20259;-52
2022/07/22 05:55:33;;;;;;;9.27;8.30;;;;;;;22.98;71.69;96832.00;5053493;28;20273;-51
2022/07/22 05:57:59;;;;;;;8.52;7.82;;;;;;;23.12;72.30;96828.19;5054140;28;20207;-52
2022/07/22 06:00:26;;;;;;;9.45;8.50;;;;;;;23.41;70.58;96828.63;5050074;28;20212;-51
2022/07/22 06:02:53;;;;;;;9.35;8.23;;;;;;;23.59;69.81;96836.81;5054440;28;20199;-54
2022/07/22 06:05:20;;;;;;;9.07;8.18;;;;;;;23.62;68.44;96841.78;5054807;28;20294;-54
2022/07/22 06:07:47;;;;;;;10.25;9.05;;;;;;;23.60;68.15;96831.19;5054370;28;20306;-53
2022/07/22 06:10:13;;;;;;;9.75;8.95;;;;;;;23.80;66.66;96831.03;5054471;28;20237;-53
2022/07/22 06:12:41;;;;;;;10.65;9.55;;;;;;;24.06;66.17;96832.66;5053775;28;20741;-52
2022/07/22 06:15:09;;;;;;;9.18;8.38;;;;;;;24.10;67.84;96837.41;5053987;28;20206;-53
2022/07/22 06:17:36;;;;;;;9.75;8.77;;;;;;;24.14;67.00;96830.53;5054112;28;20204;-53
2022/07/22 06:20:03;;;;;;;9.65;8.75;;;;;;;24.41;67.15;96828.34;5054539;28;20227;-53
2022/07/22 06:22:29;;;;;;;9.82;8.93;;;;;;;24.42;67.23;96829.19;5054432;28;20218;-52
2022/07/22 06:24:56;;;;;;;12.32;8.38;;;;;;;24.51;67.70;96835.97;5054808;28;20635;-53
2022/07/22 06:27:23;;;;;;;10.10;9.18;;;;;;;24.73;65.95;96837.97;5053430;28;20620;-52
2022/07/22 06:29:51;;;;;;;9.63;8.70;;;;;;;24.87;63.86;96835.13;5055120;28;20199;-52
2022/07/22 06:32:17;;;;;;;10.70;9.68;;;;;;;25.03;62.86;96837.19;5055869;28;20246;-51
2022/07/22 06:34:44;;;;;;;9.70;8.75;;;;;;;25.14;64.80;96831.00;5049926;28;20207;-52
2022/07/22 06:37:10;;;;;;;9.43;8.73;;;;;;;25.45;63.64;96830.75;5059407;28;20203;-53
2022/07/22 06:39:37;;;;;;;10.20;9.40;;;;;;;25.48;63.86;96840.28;5056431;28;20214;-53
2022/07/22 06:42:04;;;;;;;9.60;8.70;;;;;;;25.86;63.14;96834.50;5076904;28;20243;-51
2022/07/22 06:44:31;;;;;;;10.93;9.60;;;;;;;25.91;62.21;96829.19;5077099;28;20222;-52
2022/07/22 06:46:59;;;;;;;10.52;9.48;;;;;;;26.06;61.50;96832.25;5064064;28;20231;-54
2022/07/22 06:49:25;;;;;;;11.80;9.60;;;;;;;26.26;60.10;96832.75;5077398;28;20239;-53
2022/07/22 06:51:52;;;;;;;10.18;9.20;;;;;;;26.21;60.94;96832.66;5075259;28;20219;-53
2022/07/22 06:54:18;;;;;;;9.95;8.90;;;;;;;26.38;62.64;96838.19;5076983;28;20199;-53
2022/07/22 06:56:45;;;;;;;10.48;9.38;;;;;;;26.58;61.42;96830.47;5080569;28;20225;-52
2022/07/22 06:59:12;;;;;;;11.23;9.95;;;;;;;26.73;60.92;96834.34;5072461;28;20268;-52
2022/07/22 07:01:38;;;;;;;10.85;9.77;;;;;;;26.50;59.56;96839.78;5060329;28;20217;-52
2022/07/22 07:04:06;;;;;;;10.68;9.55;;;;;;;26.37;59.49;96831.09;5054924;28;20214;-52
2022/07/22 07:06:33;;;;;;;11.30;9.55;;;;;;;26.44;59.63;96826.38;5058250;28;20509;-53
2022/07/22 07:09:00;;;;;;;9.95;9.05;;;;;;;26.59;60.41;96830.25;5048399;28;20286;-53
2022/07/22 07:11:26;;;;;;;12.70;9.75;;;;;;;26.67;58.89;96829.03;5056958;28;20286;-52
2022/07/22 07:13:53;;;;;;;11.98;8.60;;;;;;;26.91;60.33;96821.69;5056856;28;20219;-53
2022/07/22 07:16:19;;;;;;;10.48;9.45;;;;;;;26.99;59.03;96816.72;5056685;28;20295;-52
2022/07/22 07:18:46;;;;;;;10.82;9.82;;;;;;;27.20;60.31;96815.19;5056500;28;20265;-52
2022/07/22 07:21:14;;;;;;;11.25;10.13;;;;;;;27.20;58.13;96817.91;5050414;28;20626;-53
2022/07/22 07:23:41;;;;;;;9.85;8.95;;;;;;;27.63;57.03;96812.72;5046645;28;20214;-52
2022/07/22 07:26:08;;;;;;;9.88;8.95;;;;;;;27.51;58.01;96811.16;5056951;28;20288;-53
2022/07/22 07:28:34;;;;;;;10.25;9.32;;;;;;;27.61;56.76;96812.16;5056618;28;20235;-52
2022/07/22 07:31:01;;;;;;;10.40;9.32;;;;;;;27.55;56.10;96810.41;5056961;28;20512;-53
2022/07/22 07:33:28;;;;;;;10.52;9.55;;;;;;;27.54;56.67;96813.38;5056535;28;20522;-52
2022/07/22 07:35:55;;;;;;;10.68;9.63;;;;;;;27.77;57.08;96807.78;5056524;28;20256;-53
2022/07/22 07:38:23;;;;;;;10.40;9.48;;;;;;;27.94;56.28;96802.34;5056289;28;20241;-54
2022/07/22 07:40:50;;;;;;;9.98;9.15;;;;;;;27.92;55.61;96796.31;5052692;28;20265;-52
2022/07/22 07:43:16;;;;;;;11.40;10.38;;;;;;;28.06;54.51;96792.19;5048096;28;20207;-53
2022/07/22 07:45:44;;;;;;;11.60;9.02;;;;;;;28.39;56.92;96785.88;5056537;28;20234;-53
2022/07/22 07:48:11;;;;;;;9.88;9.05;;;;;;;28.60;54.88;96791.34;5055822;28;20318;-52
2022/07/22 07:50:39;;;;;;;11.05;9.52;;;;;;;28.71;54.40;96791.50;5055741;28;20199;-53
2022/07/22 07:53:06;;;;;;;9.85;8.95;;;;;;;28.49;56.29;96789.56;5056022;28;20231;-54
2022/07/22 07:55:35;;;;;;;11.00;9.85;;;;;;;28.81;53.64;96783.44;5050528;28;20215;-53
2022/07/22 07:58:02;;;;;;;11.02;9.77;;;;;;;28.80;53.51;96787.25;5055689;28;20217;-53
2022/07/22 08:00:32;;;;;;;10.45;9.45;;;;;;;28.80;53.00;96785.38;5055137;28;20230;-53
2022/07/22 08:02:59;;;;;;;11.23;10.20;;;;;;;28.60;52.61;96777.72;5055744;28;20319;-53
2022/07/22 08:05:26;;;;;;;11.10;10.13;;;;;;;28.78;53.30;96773.88;5055479;28;20693;-53
2022/07/22 08:07:52;;;;;;;11.35;10.45;;;;;;;29.38;52.39;96776.44;5055573;28;20207;-53
2022/07/22 08:10:20;;;;;;;11.63;10.63;;;;;;;29.21;54.25;96774.88;5055908;28;20265;-53
2022/07/22 08:12:48;;;;;;;11.60;10.50;;;;;;;29.30;52.48;96773.38;5055855;28;20667;-52
2022/07/22 08:15:15;;;;;;;11.85;10.63;;;;;;;29.24;53.78;96768.91;5055323;28;20195;-53
2022/07/22 08:17:42;;;;;;;10.57;9.68;;;;;;;29.40;52.68;96773.47;5055283;28;20206;-53
2022/07/22 08:20:09;;;;;;;11.68;10.48;;;;;;;29.27;53.52;96762.97;5056014;28;20298;-53
2022/07/22 08:22:36;;;;;;;13.15;10.38;;;;;;;29.58;53.97;96765.72;5055346;28;20245;-54
2022/07/22 08:25:03;;;;;;;13.35;11.00;;;;;;;29.47;51.86;96766.75;5055528;28;20230;-53
2022/07/22 08:27:29;;;;;;;10.48;9.70;;;;;;;29.78;54.27;96765.06;5054307;28;20257;-52
2022/07/22 08:29:57;;;;;;;11.80;10.70;;;;;;;29.70;52.07;96762.00;5055699;28;20202;-53
2022/07/22 08:32:24;;;;;;;12.52;10.70;;;;;;;29.94;54.50;96757.84;5055753;28;20237;-52
2022/07/22 08:34:51;;;;;;;10.40;9.40;;;;;;;30.13;53.69;96761.78;5062233;28;20291;-53
2022/07/22 08:37:17;;;;;;;14.43;11.00;;;;;;;30.20;52.65;96759.66;5060726;28;20260;-53
2022/07/22 08:39:45;;;;;;;11.25;10.25;;;;;;;30.27;52.88;96752.03;5061310;28;20274;-53
2022/07/22 08:42:13;;;;;;;11.85;9.23;;;;;;;30.52;51.60;96746.75;5058315;28;20257;-52
2022/07/22 08:44:40;;;;;;;10.63;9.40;;;;;;;30.44;50.81;96740.97;5056187;28;20245;-53
2022/07/22 08:47:08;;;;;;;11.73;9.52;;;;;;;30.68;50.95;96735.88;5055216;28;20227;-53
2022/07/22 08:49:35;;;;;;;10.20;9.27;;;;;;;30.72;50.12;96737.78;5055057;28;20207;-52
2022/07/22 08:52:02;;;;;;;10.70;9.80;;;;;;;30.52;48.00;96730.38;5055853;28;20206;-54
2022/07/22 08:54:29;;;;;;;10.25;9.30;;;;;;;30.36;50.58;96728.59;5055711;28;20556;-52
2022/07/22 08:56:56;;;;;;;11.85;9.93;;;;;;;30.38;50.17;96725.63;5053328;28;20199;-54
2022/07/22 08:59:23;;;;;;;10.15;9.25;;;;;;;30.32;50.22;96727.53;5055350;28;20231;-52
2022/07/22 09:02:05;;;;;;;12.27;9.07;;;;;;;30.57;51.06;96730.38;5055023;28;20265;-54
2022/07/22 09:04:33;;;;;;;11.55;9.75;;;;;;;30.72;53.46;96720.59;5043103;28;20334;-53
2022/07/22 09:07:00;;;;;;;10.30;9.40;;;;;;;30.90;49.51;96728.28;5053782;28;20257;-53
2022/07/22 09:09:33;;;;;;;11.27;10.23;;;;;;;30.63;49.60;96722.19;5054455;28;20203;-52
2022/07/22 09:12:06;;;;;;;11.23;10.32;;;;;;;30.52;48.11;96722.16;5054044;28;20281;-55
2022/07/22 09:14:45;;;;;;;10.02;9.23;;;;;;;30.22;51.59;96724.72;5054272;28;20218;-54
2022/07/22 09:17:23;;;;;;;10.90;9.88;;;;;;;30.73;50.66;96719.50;5053905;28;20206;-55
2022/07/22 09:19:51;;;;;;;10.93;9.93;;;;;;;30.55;49.22;96727.09;5054400;28;20285;-55
2022/07/22 09:22:32;;;;;;;10.05;9.15;;;;;;;30.78;50.19;96722.25;5054929;28;20203;-55
2022/07/22 09:25:01;;;;;;;10.93;9.82;;;;;;;30.71;49.37;96729.88;5054625;28;20210;-52
2022/07/22 09:27:28;;;;;;;10.48;9.57;;;;;;;30.69;48.16;96723.84;5054438;28;20203;-55
2022/07/22 09:29:56;;;;;;;9.55;8.75;;;;;;;30.89;50.19;96719.25;5054194;28;20217;-54
2022/07/22 09:32:23;;;;;;;9.65;8.93;;;;;;;31.11;51.36;96719.06;5054175;28;20199;-54
2022/07/22 09:34:51;;;;;;;10.45;8.90;;;;;;;31.37;48.48;96725.38;5053789;28;20206;-53
2022/07/22 09:37:18;;;;;;;9.98;9.13;;;;;;;31.27;46.37;96722.66;5054277;28;20612;-53
2022/07/22 09:39:44;;;;;;;11.40;10.10;;;;;;;31.11;48.92;96716.34;5054340;28;20230;-55
2022/07/22 09:42:11;;;;;;;10.90;9.80;;;;;;;31.32;46.62;96720.72;5054491;28;20207;-54
2022/07/22 09:44:38;;;;;;;9.82;9.02;;;;;;;31.63;47.46;96716.13;5054610;28;20234;-55
2022/07/22 09:47:05;;;;;;;10.05;9.15;;;;;;;31.67;46.94;96716.41;5054015;28;20618;-54
2022/07/22 09:49:34;;;;;;;9.85;9.05;;;;;;;31.63;48.52;96715.31;5054447;28;20624;-54
2022/07/22 09:52:02;;;;;;;10.93;10.10;;;;;;;31.58;46.05;96714.22;5053762;28;20247;-53
2022/07/22 09:54:30;;;;;;;9.43;8.68;;;;;;;31.96;48.97;96711.94;5054775;28;20230;-54
2022/07/22 09:56:56;;;;;;;9.43;8.63;;;;;;;31.83;48.51;96710.63;5055138;28;20534;-55
2022/07/22 09:59:23;;;;;;;10.13;9.27;;;;;;;31.76;47.66;96704.63;5054565;28;20268;-53
2022/07/22 10:01:54;;;;;;;10.07;9.32;;;;;;;31.86;47.37;96703.78;5053176;28;20286;-53
2022/07/22 10:04:22;;;;;;;10.30;9.30;;;;;;;31.85;46.23;96713.09;5048096;28;20233;-55
2022/07/22 10:06:49;;;;;;;11.82;9.60;;;;;;;31.85;44.73;96708.41;5054614;28;20632;-54
2022/07/22 10:09:18;;;;;;;9.40;8.70;;;;;;;31.87;44.61;96711.72;5053972;28;20696;-55
2022/07/22 10:11:46;;;;;;;9.80;8.90;;;;;;;31.81;47.61;96701.88;5048566;28;20286;-55
2022/07/22 10:14:14;;;;;;;9.52;8.80;;;;;;;32.23;46.45;96701.53;5048329;28;20262;-54
2022/07/22 10:16:41;;;;;;;10.02;9.05;;;;;;;32.34;45.91;96705.06;5047674;28;20204;-55
2022/07/22 10:19:09;;;;;;;10.32;9.32;;;;;;;32.30;46.37;96704.78;5053316;28;20199;-54
2022/07/22 10:21:37;;;;;;;11.07;10.10;;;;;;;32.00;46.04;96699.34;5053370;28;20696;-54
2022/07/22 10:24:09;;;;;;;10.07;9.23;;;;;;;32.40;48.24;96699.28;5054454;28;20207;-53
2022/07/22 10:26:51;;;;;;;10.50;9.60;;;;;;;32.40;46.93;96699.28;5041004;28;20207;-54
2022/07/22 10:29:31;;;;;;;10.10;9.27;;;;;;;32.47;47.40;96697.06;5054399;28;20211;-54
2022/07/22 10:32:28;;;;;;;10.60;9.80;;;;;;;32.35;48.36;96691.06;5057695;28;20199;-55
2022/07/22 10:35:23;;;;;;;9.57;8.85;;;;;;;32.62;47.86;96687.16;4986085;28;20243;-55
2022/07/22 10:37:50;;;;;;;9.60;8.88;;;;;;;32.63;45.30;96683.31;5038008;28;20237;-55
2022/07/22 10:40:22;;;;;;;10.13;9.38;;;;;;;32.47;46.11;96683.34;5057233;28;20218;-54
2022/07/22 10:43:06;;;;;;;10.57;9.60;;;;;;;32.86;44.59;96685.38;5044904;28;20209;-54
2022/07/22 10:45:34;;;;;;;10.18;9.18;;;;;;;32.93;46.31;96680.38;5055615;28;20248;-55
2022/07/22 10:48:05;;;;;;;9.70;9.00;;;;;;;33.12;44.70;96678.66;5057411;28;20281;-55
2022/07/22 10:50:51;;;;;;;10.25;9.35;;;;;;;33.18;43.57;96679.44;5057676;28;20231;-55
2022/07/22 10:53:21;;;;;;;10.40;9.48;;;;;;;33.02;43.91;96674.00;5057379;28;20254;-55
2022/07/22 10:56:02;;;;;;;10.13;9.32;;;;;;;33.26;45.13;96674.16;5057476;28;20238;-54
2022/07/22 10:58:52;;;;;;;9.80;9.05;;;;;;;33.33;45.13;96665.59;5057484;28;20214;-55
2022/07/22 11:01:21;;;;;;;10.43;9.52;;;;;;;33.18;43.08;96660.25;5056802;28;20209;-54
2022/07/22 11:03:49;;;;;;;10.10;9.40;;;;;;;32.89;43.25;96657.41;5057261;28;20289;-54
2022/07/22 11:06:19;;;;;;;10.18;9.40;;;;;;;33.01;44.92;96660.63;5055994;28;20290;-55
2022/07/22 11:08:48;;;;;;;11.10;10.20;;;;;;;33.10;44.02;96658.88;5066539;28;20215;-54
2022/07/22 11:11:15;;;;;;;10.32;9.63;;;;;;;33.07;43.35;96653.16;5060158;28;20241;-54
2022/07/22 11:13:44;;;;;;;9.88;8.98;;;;;;;33.04;44.79;96649.91;5058266;28;20230;-55
2022/07/22 11:16:17;;;;;;;9.77;8.98;;;;;;;33.08;46.29;96652.06;5056947;28;20280;-53
2022/07/22 11:18:50;;;;;;;10.93;10.02;;;;;;;32.99;45.08;96651.84;5057152;28;20337;-55
2022/07/22 11:21:19;;;;;;;9.40;8.60;;;;;;;33.03;44.59;96647.44;5053441;28;20227;-55
2022/07/22 11:23:48;;;;;;;10.55;9.45;;;;;;;33.07;44.11;96647.69;5056324;28;20238;-54
2022/07/22 11:26:17;;;;;;;11.30;9.10;;;;;;;33.14;43.00;96643.53;5056696;28;20203;-55
2022/07/22 11:28:45;;;;;;;12.35;9.32;;;;;;;33.20;44.88;96642.38;5056420;28;20227;-53
2022/07/22 11:31:19;;;;;;;10.75;9.55;;;;;;;33.32;43.29;96631.06;5055836;28;20231;-55
2022/07/22 11:33:46;;;;;;;9.55;8.88;;;;;;;33.46;42.55;96637.50;5056683;28;20228;-54